Aviation Digital Data Service (ADDS)

Output produced by METARs form (1728 UTC 30 March 2015)
found at http://www.aviationweather.gov/adds/metars/
 
METAR text: KCCU 301715Z AUTO 26023G30KT 10SM CLR 03/M16 A3046 RMK AO2
Conditions at: KCCU (RED CLIFF PASS , CO, US) observed 1715 UTC 30 March 2015
Temperature: 3.0°C (37°F)
Dewpoint: -16.0°C (3°F) [RH = 23%]
Pressure (altimeter): 30.46 inches Hg (1031.6 mb)
Winds: from the W (260 degrees) at 26 MPH (23 knots; 12.0 m/s)
gusting to 34 MPH (30 knots; 15.6 m/s)
Visibility: 10 or more miles (16+ km)
Ceiling: at least 12,000 feet AGL
Clouds: sky clear below 12,000 feet AGL
Weather: automated observation with no human augmentation;
there may or may not be significant weather present at this time